Accueil
METAR-TAF:

METAR-TAF

Aéroports :

Aéroport international de Kosrae

Kosrae, Micronésie

latitude: 05-21N, longitude: 162-57E, altitude: 3 m

Observation

Le bulletin a été fait il y a 6 heures et 7 minutes, à 04:50 UTC
Vent 14 kt de est
Température 29°C
Humidité 79%
Pression 1006 hPa
Visibilité: 16.1 km
Nuages épars à une hauteur de 2000 ft
Nuages fragmentés à une hauteur de 13000 ft
Nuages fragmentés à une hauteur de 30000 ft

METAR: PTSA 270450Z 08014KT 10SM SCT020 BKN130 BKN300 29/25 A2972 RMK LAST

Heure: 21:57 (10:57 UTC)

Prévision

Le bulletin a été fait il y a 5 heures et 57 minutes, à 05:00 UTC
Prévision valable du 27 à 05 UTC au 27 à 24 UTC
Vent 12 kt de est
Visibilité: 10 km
Nuages épars à une hauteur de 2000 ft
Nuages épars à une hauteur de 6000 ft
Nuages fragmentés à une hauteur de 10000 ft

TAF: PTSA 270500Z 2705/2724 09012KT P6SM SCT020 SCT060 BKN100

Observations et prévisions météorologiques de plus de 4000 aéroports (messages METAR et TAF).

Les stations disponibles sont représentées par des disques jaunes et rouges sur la carte.

Passer la souris dessus pour voir le nom de la station.

Cliquer dessus pour voir les observations et prévisions météorologiques.

Pour changer de carte: cliquez sur les boutons verts avec une croix noire pour zoomer, sur le bouton vert avec un tiret pour effectuer un zoom arrière, ou sur les flèches vertes pour les cartes adjacentes.


METAR-TAF: